sensor_id;sensor_type;location;lat;lon;timestamp;pressure;altitude;pressure_sealevel;temperature;humidity
18527;BME280;9393;42.158;24.748;2023-03-12T00:02:25;98473.13;;;10.51;54.77
18527;BME280;9393;42.158;24.748;2023-03-12T00:05:29;98462.50;;;10.61;54.74
18527;BME280;9393;42.158;24.748;2023-03-12T00:08:35;98468.41;;;10.39;55.43
18527;BME280;9393;42.158;24.748;2023-03-12T00:11:39;98473.13;;;10.35;54.79
18527;BME280;9393;42.158;24.748;2023-03-12T00:14:43;98477.88;;;10.32;53.45
18527;BME280;9393;42.158;24.748;2023-03-12T00:17:47;98479.84;;;10.13;52.95
18527;BME280;9393;42.158;24.748;2023-03-12T00:20:54;98488.59;;;10.45;51.54
18527;BME280;9393;42.158;24.748;2023-03-12T00:24:00;98491.66;;;10.48;51.78
18527;BME280;9393;42.158;24.748;2023-03-12T00:27:05;98488.59;;;10.45;56.29
18527;BME280;9393;42.158;24.748;2023-03-12T00:30:10;98488.00;;;10.27;58.83
18527;BME280;9393;42.158;24.748;2023-03-12T00:33:15;98491.91;;;10.31;58.04
18527;BME280;9393;42.158;24.748;2023-03-12T00:36:20;98488.47;;;10.22;58.12
18527;BME280;9393;42.158;24.748;2023-03-12T00:39:28;98480.16;;;10.19;59.18
18527;BME280;9393;42.158;24.748;2023-03-12T00:42:33;98491.56;;;10.01;59.54
18527;BME280;9393;42.158;24.748;2023-03-12T00:45:37;98484.88;;;9.75;59.51
18527;BME280;9393;42.158;24.748;2023-03-12T00:48:41;98488.59;;;9.96;59.18
18527;BME280;9393;42.158;24.748;2023-03-12T00:51:46;98481.13;;;9.61;60.30
18527;BME280;9393;42.158;24.748;2023-03-12T00:54:51;98466.97;;;9.80;59.83
18527;BME280;9393;42.158;24.748;2023-03-12T00:57:59;98476.06;;;9.59;59.95
18527;BME280;9393;42.158;24.748;2023-03-12T01:01:04;98485.34;;;9.62;58.98
18527;BME280;9393;42.158;24.748;2023-03-12T01:04:08;98481.13;;;9.61;57.97
18527;BME280;9393;42.158;24.748;2023-03-12T01:07:12;98489.09;;;9.59;57.36
18527;BME280;9393;42.158;24.748;2023-03-12T01:10:19;98501.78;;;9.62;56.03
18527;BME280;9393;42.158;24.748;2023-03-12T01:13:23;98514.78;;;9.54;56.22
18527;BME280;9393;42.158;24.748;2023-03-12T01:16:28;98505.81;;;9.49;54.98
18527;BME280;9393;42.158;24.748;2023-03-12T01:19:33;98493.84;;;9.06;55.52
18527;BME280;9393;42.158;24.748;2023-03-12T01:22:38;98505.41;;;9.11;55.22
18527;BME280;9393;42.158;24.748;2023-03-12T01:25:44;98521.69;;;9.22;55.26
18527;BME280;9393;42.158;24.748;2023-03-12T01:28:49;98514.88;;;8.87;55.52
18527;BME280;9393;42.158;24.748;2023-03-12T01:31:53;98516.72;;;8.94;55.12
18527;BME280;9393;42.158;24.748;2023-03-12T01:34:57;98519.94;;;8.88;55.30
18527;BME280;9393;42.158;24.748;2023-03-12T01:38:01;98513.84;;;8.46;55.93
18527;BME280;9393;42.158;24.748;2023-03-12T01:41:07;98528.94;;;8.68;55.09
18527;BME280;9393;42.158;24.748;2023-03-12T01:44:13;98532.88;;;8.72;54.92
18527;BME280;9393;42.158;24.748;2023-03-12T01:47:18;98540.09;;;8.60;54.75
18527;BME280;9393;42.158;24.748;2023-03-12T01:50:22;98547.47;;;8.73;54.75
18527;BME280;9393;42.158;24.748;2023-03-12T01:53:27;98556.22;;;8.98;54.13
18527;BME280;9393;42.158;24.748;2023-03-12T01:56:34;98561.16;;;8.83;53.94
18527;BME280;9393;42.158;24.748;2023-03-12T01:59:42;98565.78;;;8.63;53.93
18527;BME280;9393;42.158;24.748;2023-03-12T02:02:50;98569.97;;;8.82;53.58
18527;BME280;9393;42.158;24.748;2023-03-12T02:06:02;98580.75;;;8.70;53.52
18527;BME280;9393;42.158;24.748;2023-03-12T02:09:10;98586.66;;;8.54;53.67
18527;BME280;9393;42.158;24.748;2023-03-12T02:12:16;98596.25;;;8.79;53.35
18527;BME280;9393;42.158;24.748;2023-03-12T02:15:20;98598.63;;;8.98;52.40
18527;BME280;9393;42.158;24.748;2023-03-12T02:18:25;98610.72;;;9.07;51.55
18527;BME280;9393;42.158;24.748;2023-03-12T02:21:30;98616.94;;;8.63;52.06
18527;BME280;9393;42.158;24.748;2023-03-12T02:24:42;98618.50;;;8.56;52.08
18527;BME280;9393;42.158;24.748;2023-03-12T02:27:50;98626.56;;;8.71;51.63
18527;BME280;9393;42.158;24.748;2023-03-12T02:30:57;98632.22;;;8.66;51.39
18527;BME280;9393;42.158;24.748;2023-03-12T02:34:02;98644.03;;;8.60;50.75
18527;BME280;9393;42.158;24.748;2023-03-12T02:37:06;98652.75;;;8.51;51.39
18527;BME280;9393;42.158;24.748;2023-03-12T02:40:15;98647.41;;;8.35;51.37
18527;BME280;9393;42.158;24.748;2023-03-12T02:43:23;98653.13;;;8.39;51.49
18527;BME280;9393;42.158;24.748;2023-03-12T02:46:29;98665.59;;;8.35;51.49
18527;BME280;9393;42.158;24.748;2023-03-12T02:49:36;98660.00;;;8.12;51.64
18527;BME280;9393;42.158;24.748;2023-03-12T02:52:40;98657.56;;;8.29;51.45
18527;BME280;9393;42.158;24.748;2023-03-12T02:55:44;98669.88;;;8.27;51.12
18527;BME280;9393;42.158;24.748;2023-03-12T02:58:50;98672.47;;;8.09;51.26
18527;BME280;9393;42.158;24.748;2023-03-12T03:01:58;98680.81;;;8.21;50.74
18527;BME280;9393;42.158;24.748;2023-03-12T03:05:04;98679.03;;;8.31;50.87
18527;BME280;9393;42.158;24.748;2023-03-12T03:08:08;98685.53;;;8.35;50.49
18527;BME280;9393;42.158;24.748;2023-03-12T03:11:12;98680.75;;;8.40;50.42
18527;BME280;9393;42.158;24.748;2023-03-12T03:14:18;98685.41;;;8.54;50.10
18527;BME280;9393;42.158;24.748;2023-03-12T03:17:25;98694.31;;;8.34;50.27
18527;BME280;9393;42.158;24.748;2023-03-12T03:20:29;98699.34;;;8.35;50.78
18527;BME280;9393;42.158;24.748;2023-03-12T03:23:34;98706.25;;;8.27;50.73
18527;BME280;9393;42.158;24.748;2023-03-12T03:26:39;98711.22;;;8.38;50.97
18527;BME280;9393;42.158;24.748;2023-03-12T03:29:46;98700.78;;;8.02;51.31
18527;BME280;9393;42.158;24.748;2023-03-12T03:32:50;98706.94;;;7.74;51.95
18527;BME280;9393;42.158;24.748;2023-03-12T03:35:54;98716.13;;;7.96;51.57
18527;BME280;9393;42.158;24.748;2023-03-12T03:38:58;98727.66;;;7.84;51.47
18527;BME280;9393;42.158;24.748;2023-03-12T03:42:04;98738.16;;;7.92;51.26
18527;BME280;9393;42.158;24.748;2023-03-12T03:45:10;98730.41;;;7.82;51.20
18527;BME280;9393;42.158;24.748;2023-03-12T03:48:17;98740.56;;;7.66;51.12
18527;BME280;9393;42.158;24.748;2023-03-12T03:51:21;98760.91;;;7.71;51.18
18527;BME280;9393;42.158;24.748;2023-03-12T03:54:31;98755.63;;;7.90;50.46
18527;BME280;9393;42.158;24.748;2023-03-12T03:57:36;98746.34;;;7.87;50.80
18527;BME280;9393;42.158;24.748;2023-03-12T04:00:44;98747.22;;;7.78;50.36
18527;BME280;9393;42.158;24.748;2023-03-12T04:03:49;98744.16;;;7.65;50.72
18527;BME280;9393;42.158;24.748;2023-03-12T04:06:53;98746.66;;;7.84;50.63
18527;BME280;9393;42.158;24.748;2023-03-12T04:09:57;98756.50;;;7.81;50.01
18527;BME280;9393;42.158;24.748;2023-03-12T04:13:01;98766.16;;;7.61;49.43
18527;BME280;9393;42.158;24.748;2023-03-12T04:16:07;98776.84;;;7.85;49.47
18527;BME280;9393;42.158;24.748;2023-03-12T04:19:12;98769.78;;;7.78;48.98
18527;BME280;9393;42.158;24.748;2023-03-12T04:22:16;98777.09;;;7.92;48.57
18527;BME280;9393;42.158;24.748;2023-03-12T04:25:21;98783.28;;;8.08;47.98
18527;BME280;9393;42.158;24.748;2023-03-12T04:28:25;98785.22;;;8.06;47.80
18527;BME280;9393;42.158;24.748;2023-03-12T04:31:31;98792.31;;;8.04;48.11
18527;BME280;9393;42.158;24.748;2023-03-12T04:34:36;98791.22;;;8.07;47.13
18527;BME280;9393;42.158;24.748;2023-03-12T04:37:40;98780.88;;;7.97;47.22
18527;BME280;9393;42.158;24.748;2023-03-12T04:40:45;98789.53;;;8.16;46.58
18527;BME280;9393;42.158;24.748;2023-03-12T04:43:49;98791.47;;;8.13;46.36
18527;BME280;9393;42.158;24.748;2023-03-12T04:46:56;98809.25;;;8.08;47.03
18527;BME280;9393;42.158;24.748;2023-03-12T04:50:00;98798.34;;;8.05;46.61
18527;BME280;9393;42.158;24.748;2023-03-12T04:53:05;98813.50;;;8.09;47.23
18527;BME280;9393;42.158;24.748;2023-03-12T04:56:09;98822.09;;;7.73;47.47
18527;BME280;9393;42.158;24.748;2023-03-12T04:59:14;98824.19;;;8.06;46.53
18527;BME280;9393;42.158;24.748;2023-03-12T05:02:21;98845.16;;;7.86;47.43
18527;BME280;9393;42.158;24.748;2023-03-12T05:05:25;98835.84;;;7.93;47.42
18527;BME280;9393;42.158;24.748;2023-03-12T05:08:29;98848.41;;;8.25;46.57
18527;BME280;9393;42.158;24.748;2023-03-12T05:11:33;98851.69;;;8.36;46.45
18527;BME280;9393;42.158;24.748;2023-03-12T05:14:41;98858.78;;;8.25;46.36
18527;BME280;9393;42.158;24.748;2023-03-12T05:17:47;98864.47;;;8.47;46.30
18527;BME280;9393;42.158;24.748;2023-03-12T05:20:58;98874.22;;;8.36;46.07
18527;BME280;9393;42.158;24.748;2023-03-12T05:24:02;98873.69;;;8.32;46.30
18527;BME280;9393;42.158;24.748;2023-03-12T05:27:06;98882.56;;;7.93;46.98
18527;BME280;9393;42.158;24.748;2023-03-12T05:30:11;98884.91;;;8.33;46.57
18527;BME280;9393;42.158;24.748;2023-03-12T05:33:17;98878.72;;;8.06;46.88
18527;BME280;9393;42.158;24.748;2023-03-12T05:36:21;98880.47;;;8.06;46.70
18527;BME280;9393;42.158;24.748;2023-03-12T05:39:26;98881.19;;;8.35;46.16
18527;BME280;9393;42.158;24.748;2023-03-12T05:42:35;98891.53;;;8.45;46.16
18527;BME280;9393;42.158;24.748;2023-03-12T05:45:41;98888.41;;;8.41;45.89
18527;BME280;9393;42.158;24.748;2023-03-12T05:48:47;98895.84;;;8.36;45.99
18527;BME280;9393;42.158;24.748;2023-03-12T05:51:52;98900.09;;;8.37;46.30
18527;BME280;9393;42.158;24.748;2023-03-12T05:54:57;98897.97;;;8.50;46.12
18527;BME280;9393;42.158;24.748;2023-03-12T05:58:02;98912.38;;;8.72;46.05
18527;BME280;9393;42.158;24.748;2023-03-12T06:01:11;98921.22;;;8.97;44.94
18527;BME280;9393;42.158;24.748;2023-03-12T06:04:17;98916.00;;;9.06;44.31
18527;BME280;9393;42.158;24.748;2023-03-12T06:07:21;98917.69;;;9.33;43.86
18527;BME280;9393;42.158;24.748;2023-03-12T06:10:26;98933.63;;;9.48;43.96
18527;BME280;9393;42.158;24.748;2023-03-12T06:13:31;98945.94;;;9.28;43.96
18527;BME280;9393;42.158;24.748;2023-03-12T06:16:36;98955.44;;;9.73;43.43
18527;BME280;9393;42.158;24.748;2023-03-12T06:19:42;98963.75;;;9.94;43.00
18527;BME280;9393;42.158;24.748;2023-03-12T06:22:46;98959.19;;;9.70;42.45
18527;BME280;9393;42.158;24.748;2023-03-12T06:25:51;98972.69;;;9.91;41.64
18527;BME280;9393;42.158;24.748;2023-03-12T06:28:55;98975.94;;;10.11;40.75
18527;BME280;9393;42.158;24.748;2023-03-12T06:31:59;98966.44;;;10.20;40.27
18527;BME280;9393;42.158;24.748;2023-03-12T06:35:05;98974.69;;;10.15;39.83
18527;BME280;9393;42.158;24.748;2023-03-12T06:38:10;98990.84;;;10.19;39.31
18527;BME280;9393;42.158;24.748;2023-03-12T06:41:16;98997.03;;;10.43;39.16
18527;BME280;9393;42.158;24.748;2023-03-12T06:44:20;99011.03;;;10.42;38.71
18527;BME280;9393;42.158;24.748;2023-03-12T06:47:25;99015.63;;;10.48;38.58
18527;BME280;9393;42.158;24.748;2023-03-12T06:50:30;98993.16;;;10.47;37.67
18527;BME280;9393;42.158;24.748;2023-03-12T06:53:35;99008.69;;;10.57;37.72
18527;BME280;9393;42.158;24.748;2023-03-12T06:56:43;99008.41;;;10.68;37.76
18527;BME280;9393;42.158;24.748;2023-03-12T06:59:48;99013.06;;;10.82;37.27
18527;BME280;9393;42.158;24.748;2023-03-12T07:02:53;99019.19;;;10.73;37.70
18527;BME280;9393;42.158;24.748;2023-03-12T07:05:59;99023.28;;;11.18;36.68
18527;BME280;9393;42.158;24.748;2023-03-12T07:09:03;99042.66;;;11.07;36.75
18527;BME280;9393;42.158;24.748;2023-03-12T07:12:08;99033.63;;;11.35;36.04
18527;BME280;9393;42.158;24.748;2023-03-12T07:15:12;99038.34;;;11.32;36.32
18527;BME280;9393;42.158;24.748;2023-03-12T07:18:16;99033.19;;;11.56;35.67
18527;BME280;9393;42.158;24.748;2023-03-12T07:21:22;99050.63;;;11.39;35.00
18527;BME280;9393;42.158;24.748;2023-03-12T07:24:26;99040.47;;;11.28;35.16
18527;BME280;9393;42.158;24.748;2023-03-12T07:27:30;99046.59;;;11.61;34.43
18527;BME280;9393;42.158;24.748;2023-03-12T07:30:35;99030.50;;;11.90;34.06
18527;BME280;9393;42.158;24.748;2023-03-12T07:33:39;99025.47;;;11.38;34.35
18527;BME280;9393;42.158;24.748;2023-03-12T07:36:45;99029.63;;;11.57;34.34
18527;BME280;9393;42.158;24.748;2023-03-12T07:39:49;99035.09;;;11.96;34.25
18527;BME280;9393;42.158;24.748;2023-03-12T07:42:56;99034.25;;;12.03;34.19
18527;BME280;9393;42.158;24.748;2023-03-12T07:46:00;99033.44;;;12.43;33.61
18527;BME280;9393;42.158;24.748;2023-03-12T07:49:04;99024.44;;;12.38;33.32
18527;BME280;9393;42.158;24.748;2023-03-12T07:52:10;99039.94;;;12.55;32.66
18527;BME280;9393;42.158;24.748;2023-03-12T07:55:14;99032.91;;;12.72;32.69
18527;BME280;9393;42.158;24.748;2023-03-12T07:58:19;99037.88;;;12.27;33.78
18527;BME280;9393;42.158;24.748;2023-03-12T08:01:23;99019.38;;;12.44;33.28
18527;BME280;9393;42.158;24.748;2023-03-12T08:04:33;99033.69;;;12.81;33.35
18527;BME280;9393;42.158;24.748;2023-03-12T08:07:39;99035.38;;;12.57;33.17
18527;BME280;9393;42.158;24.748;2023-03-12T08:10:44;99045.66;;;12.59;33.18
18527;BME280;9393;42.158;24.748;2023-03-12T08:13:48;99052.59;;;12.99;32.32
18527;BME280;9393;42.158;24.748;2023-03-12T08:16:52;99061.53;;;13.21;32.12
18527;BME280;9393;42.158;24.748;2023-03-12T08:19:56;99065.44;;;13.25;31.68
18527;BME280;9393;42.158;24.748;2023-03-12T08:23:02;99070.94;;;13.38;31.96
18527;BME280;9393;42.158;24.748;2023-03-12T08:26:06;99065.72;;;13.38;32.41
18527;BME280;9393;42.158;24.748;2023-03-12T08:29:11;99058.00;;;13.44;31.46
18527;BME280;9393;42.158;24.748;2023-03-12T08:32:15;99043.97;;;13.37;31.07
18527;BME280;9393;42.158;24.748;2023-03-12T08:35:19;99050.06;;;13.83;31.16
18527;BME280;9393;42.158;24.748;2023-03-12T08:38:25;99041.03;;;14.08;30.18
18527;BME280;9393;42.158;24.748;2023-03-12T08:41:29;99019.03;;;13.95;29.89
18527;BME280;9393;42.158;24.748;2023-03-12T08:44:34;98994.97;;;13.46;29.80
18527;BME280;9393;42.158;24.748;2023-03-12T08:47:38;99015.53;;;13.26;30.33
18527;BME280;9393;42.158;24.748;2023-03-12T08:50:43;99015.78;;;13.39;30.93
18527;BME280;9393;42.158;24.748;2023-03-12T08:53:48;99036.34;;;13.81;30.57
18527;BME280;9393;42.158;24.748;2023-03-12T08:56:53;99054.09;;;13.94;30.25
18527;BME280;9393;42.158;24.748;2023-03-12T08:59:57;99049.69;;;14.32;29.91
18527;BME280;9393;42.158;24.748;2023-03-12T09:03:02;99069.16;;;14.14;29.37
18527;BME280;9393;42.158;24.748;2023-03-12T09:06:07;99065.91;;;13.90;28.51
18527;BME280;9393;42.158;24.748;2023-03-12T09:09:16;99068.13;;;14.24;29.52
18527;BME280;9393;42.158;24.748;2023-03-12T09:12:20;99061.41;;;14.21;29.88
18527;BME280;9393;42.158;24.748;2023-03-12T09:15:25;99069.53;;;14.34;29.52
18527;BME280;9393;42.158;24.748;2023-03-12T09:18:29;99049.84;;;14.15;29.72
18527;BME280;9393;42.158;24.748;2023-03-12T09:21:34;99054.00;;;13.79;29.40
18527;BME280;9393;42.158;24.748;2023-03-12T09:24:39;99048.06;;;13.62;29.47
18527;BME280;9393;42.158;24.748;2023-03-12T09:27:46;99039.09;;;13.57;30.11
18527;BME280;9393;42.158;24.748;2023-03-12T09:30:50;99040.97;;;13.94;30.32
18527;BME280;9393;42.158;24.748;2023-03-12T09:33:54;99046.75;;;14.35;29.92
18527;BME280;9393;42.158;24.748;2023-03-12T09:36:59;99044.56;;;14.38;29.89
18527;BME280;9393;42.158;24.748;2023-03-12T09:40:06;99059.91;;;14.49;29.61
18527;BME280;9393;42.158;24.748;2023-03-12T09:43:18;99071.88;;;15.10;28.74
18527;BME280;9393;42.158;24.748;2023-03-12T09:46:29;99070.81;;;15.20;29.03
18527;BME280;9393;42.158;24.748;2023-03-12T09:49:39;99072.41;;;15.21;28.84
18527;BME280;9393;42.158;24.748;2023-03-12T09:52:51;99082.56;;;15.53;29.15
18527;BME280;9393;42.158;24.748;2023-03-12T09:55:59;99075.53;;;15.75;29.23
18527;BME280;9393;42.158;24.748;2023-03-12T09:59:11;99076.38;;;15.75;29.35
18527;BME280;9393;42.158;24.748;2023-03-12T10:02:38;99078.66;;;15.63;28.73
18527;BME280;9393;42.158;24.748;2023-03-12T10:05:54;99078.50;;;15.21;28.82
18527;BME280;9393;42.158;24.748;2023-03-12T10:09:15;99075.16;;;14.98;29.26
18527;BME280;9393;42.158;24.748;2023-03-12T10:12:28;99090.00;;;15.05;29.43
18527;BME280;9393;42.158;24.748;2023-03-12T10:15:42;99082.75;;;15.07;29.66
18527;BME280;9393;42.158;24.748;2023-03-12T10:18:57;99087.38;;;14.39;30.83
18527;BME280;9393;42.158;24.748;2023-03-12T10:22:14;99079.47;;;14.76;30.00
18527;BME280;9393;42.158;24.748;2023-03-12T10:25:26;99088.91;;;14.85;30.47
18527;BME280;9393;42.158;24.748;2023-03-12T10:28:36;99094.25;;;14.92;30.13
18527;BME280;9393;42.158;24.748;2023-03-12T10:31:50;99085.91;;;15.17;30.58
18527;BME280;9393;42.158;24.748;2023-03-12T10:34:57;99103.75;;;15.07;30.79
18527;BME280;9393;42.158;24.748;2023-03-12T10:38:04;99104.56;;;14.93;30.76
18527;BME280;9393;42.158;24.748;2023-03-12T10:41:17;99092.16;;;14.87;30.41
18527;BME280;9393;42.158;24.748;2023-03-12T10:44:24;99103.22;;;14.97;30.71
18527;BME280;9393;42.158;24.748;2023-03-12T10:47:33;99101.56;;;14.67;31.41
18527;BME280;9393;42.158;24.748;2023-03-12T10:50:39;99111.38;;;14.50;31.12
18527;BME280;9393;42.158;24.748;2023-03-12T10:53:44;99101.47;;;14.38;30.38
18527;BME280;9393;42.158;24.748;2023-03-12T10:56:50;99097.69;;;15.07;29.98
18527;BME280;9393;42.158;24.748;2023-03-12T11:00:04;99091.09;;;15.26;30.12
18527;BME280;9393;42.158;24.748;2023-03-12T11:03:18;99086.44;;;15.42;29.93
18527;BME280;9393;42.158;24.748;2023-03-12T11:06:26;99088.53;;;15.47;29.91
18527;BME280;9393;42.158;24.748;2023-03-12T11:09:30;99089.34;;;15.47;29.62
18527;BME280;9393;42.158;24.748;2023-03-12T11:12:36;99074.81;;;15.66;28.58
18527;BME280;9393;42.158;24.748;2023-03-12T11:15:42;99078.41;;;15.80;28.64
18527;BME280;9393;42.158;24.748;2023-03-12T11:18:54;99084.63;;;15.93;29.05
18527;BME280;9393;42.158;24.748;2023-03-12T11:22:00;99090.91;;;15.92;28.91
18527;BME280;9393;42.158;24.748;2023-03-12T11:25:14;99082.38;;;16.33;28.14
18527;BME280;9393;42.158;24.748;2023-03-12T11:28:24;99081.38;;;15.55;28.81
18527;BME280;9393;42.158;24.748;2023-03-12T11:31:36;99081.38;;;16.34;28.93
18527;BME280;9393;42.158;24.748;2023-03-12T11:34:42;99094.69;;;16.75;28.55
18527;BME280;9393;42.158;24.748;2023-03-12T11:37:56;99087.78;;;16.74;28.22
18527;BME280;9393;42.158;24.748;2023-03-12T11:41:10;99083.31;;;16.67;27.94
18527;BME280;9393;42.158;24.748;2023-03-12T11:44:25;99085.03;;;16.82;27.78
18527;BME280;9393;42.158;24.748;2023-03-12T11:47:39;99085.69;;;16.62;27.64
18527;BME280;9393;42.158;24.748;2023-03-12T11:50:54;99071.28;;;16.37;27.97
18527;BME280;9393;42.158;24.748;2023-03-12T11:57:58;99067.00;;;17.20;27.38
18527;BME280;9393;42.158;24.748;2023-03-12T12:01:09;99072.38;;;16.71;27.49
18527;BME280;9393;42.158;24.748;2023-03-12T12:04:49;99071.56;;;16.70;27.33
18527;BME280;9393;42.158;24.748;2023-03-12T12:08:24;99077.28;;;16.31;27.42
18527;BME280;9393;42.158;24.748;2023-03-12T12:11:38;99067.34;;;16.48;27.43
18527;BME280;9393;42.158;24.748;2023-03-12T12:14:56;99084.69;;;16.63;27.20
18527;BME280;9393;42.158;24.748;2023-03-12T12:18:22;99076.91;;;16.34;27.49
18527;BME280;9393;42.158;24.748;2023-03-12T12:21:47;99073.81;;;16.52;27.52
18527;BME280;9393;42.158;24.748;2023-03-12T12:25:24;99074.00;;;16.23;27.55
18527;BME280;9393;42.158;24.748;2023-03-12T12:32:04;99068.91;;;16.42;27.37
18527;BME280;9393;42.158;24.748;2023-03-12T12:35:22;99064.66;;;16.69;27.23
18527;BME280;9393;42.158;24.748;2023-03-12T12:38:33;99064.41;;;16.36;28.10
18527;BME280;9393;42.158;24.748;2023-03-12T12:41:41;99070.78;;;16.76;27.95
18527;BME280;9393;42.158;24.748;2023-03-12T12:44:48;99072.00;;;16.74;27.25
18527;BME280;9393;42.158;24.748;2023-03-12T12:47:56;99073.25;;;16.78;26.64
18527;BME280;9393;42.158;24.748;2023-03-12T12:51:03;99080.41;;;16.62;27.03
18527;BME280;9393;42.158;24.748;2023-03-12T12:54:18;99080.78;;;16.38;27.45
18527;BME280;9393;42.158;24.748;2023-03-12T12:57:30;99087.50;;;16.90;27.30
18527;BME280;9393;42.158;24.748;2023-03-12T13:00:45;99078.44;;;16.64;26.50
18527;BME280;9393;42.158;24.748;2023-03-12T13:03:55;99081.09;;;16.99;26.35
18527;BME280;9393;42.158;24.748;2023-03-12T13:07:02;99078.59;;;16.63;26.75
18527;BME280;9393;42.158;24.748;2023-03-12T13:14:21;99088.75;;;16.94;26.04
18527;BME280;9393;42.158;24.748;2023-03-12T13:18:02;99092.78;;;17.31;26.28
18527;BME280;9393;42.158;24.748;2023-03-12T13:21:15;99082.78;;;17.54;25.97
18527;BME280;9393;42.158;24.748;2023-03-12T13:24:28;99092.28;;;17.96;25.62
18527;BME280;9393;42.158;24.748;2023-03-12T13:27:38;99090.38;;;17.36;26.19
18527;BME280;9393;42.158;24.748;2023-03-12T13:30:48;99091.06;;;17.44;26.48
18527;BME280;9393;42.158;24.748;2023-03-12T13:33:55;99092.00;;;17.71;26.14
18527;BME280;9393;42.158;24.748;2023-03-12T13:37:01;99093.25;;;17.88;25.70
18527;BME280;9393;42.158;24.748;2023-03-12T13:40:33;99078.94;;;17.15;26.62
18527;BME280;9393;42.158;24.748;2023-03-12T13:43:50;99101.38;;;16.77;27.04
18527;BME280;9393;42.158;24.748;2023-03-12T13:46:57;99106.69;;;17.11;26.34
18527;BME280;9393;42.158;24.748;2023-03-12T13:50:05;99104.53;;;16.94;26.15
18527;BME280;9393;42.158;24.748;2023-03-12T13:53:15;99105.03;;;16.76;26.75
18527;BME280;9393;42.158;24.748;2023-03-12T13:56:26;99115.38;;;16.78;26.58
18527;BME280;9393;42.158;24.748;2023-03-12T13:59:32;99107.81;;;16.68;27.00
18527;BME280;9393;42.158;24.748;2023-03-12T14:02:44;99114.28;;;17.00;26.40
18527;BME280;9393;42.158;24.748;2023-03-12T14:05:52;99120.25;;;17.08;26.61
18527;BME280;9393;42.158;24.748;2023-03-12T14:09:06;99119.97;;;16.97;26.06
18527;BME280;9393;42.158;24.748;2023-03-12T14:12:16;99115.25;;;16.86;26.51
18527;BME280;9393;42.158;24.748;2023-03-12T14:15:27;99112.06;;;16.97;26.20
18527;BME280;9393;42.158;24.748;2023-03-12T14:18:35;99111.59;;;16.87;26.26
18527;BME280;9393;42.158;24.748;2023-03-12T14:21:43;99117.06;;;16.85;26.33
18527;BME280;9393;42.158;24.748;2023-03-12T14:24:50;99118.66;;;16.86;26.48
18527;BME280;9393;42.158;24.748;2023-03-12T14:27:56;99122.72;;;16.40;27.39
18527;BME280;9393;42.158;24.748;2023-03-12T14:31:04;99128.09;;;16.53;26.81
18527;BME280;9393;42.158;24.748;2023-03-12T14:34:15;99129.78;;;16.82;26.73
18527;BME280;9393;42.158;24.748;2023-03-12T14:37:23;99138.75;;;16.66;26.60
18527;BME280;9393;42.158;24.748;2023-03-12T14:40:36;99134.41;;;16.31;27.14
18527;BME280;9393;42.158;24.748;2023-03-12T14:43:50;99139.19;;;16.70;26.58
18527;BME280;9393;42.158;24.748;2023-03-12T14:46:57;99133.28;;;16.61;26.76
18527;BME280;9393;42.158;24.748;2023-03-12T14:50:02;99135.94;;;16.89;26.46
18527;BME280;9393;42.158;24.748;2023-03-12T14:53:11;99143.28;;;17.00;26.42
18527;BME280;9393;42.158;24.748;2023-03-12T14:56:22;99145.44;;;16.90;26.49
18527;BME280;9393;42.158;24.748;2023-03-12T14:59:30;99146.47;;;16.89;26.98
18527;BME280;9393;42.158;24.748;2023-03-12T15:02:38;99152.69;;;16.60;26.81
18527;BME280;9393;42.158;24.748;2023-03-12T15:05:44;99156.19;;;16.67;27.09
18527;BME280;9393;42.158;24.748;2023-03-12T15:08:49;99155.06;;;16.34;27.51
18527;BME280;9393;42.158;24.748;2023-03-12T15:11:55;99158.63;;;15.90;27.39
18527;BME280;9393;42.158;24.748;2023-03-12T15:15:03;99160.59;;;15.52;27.53
18527;BME280;9393;42.158;24.748;2023-03-12T15:18:14;99163.66;;;15.27;27.35
18527;BME280;9393;42.158;24.748;2023-03-12T15:21:19;99177.19;;;15.53;27.48
18527;BME280;9393;42.158;24.748;2023-03-12T15:24:24;99173.19;;;15.57;27.85
18527;BME280;9393;42.158;24.748;2023-03-12T15:27:32;99181.84;;;15.43;27.94
18527;BME280;9393;42.158;24.748;2023-03-12T15:30:38;99193.63;;;15.03;27.67
18527;BME280;9393;42.158;24.748;2023-03-12T15:33:44;99195.34;;;15.25;27.67
18527;BME280;9393;42.158;24.748;2023-03-12T15:37:18;99196.78;;;15.28;27.70
18527;BME280;9393;42.158;24.748;2023-03-12T15:40:24;99208.09;;;15.51;27.76
18527;BME280;9393;42.158;24.748;2023-03-12T15:43:29;99207.94;;;15.30;27.40
18527;BME280;9393;42.158;24.748;2023-03-12T15:46:34;99208.34;;;14.89;28.17
18527;BME280;9393;42.158;24.748;2023-03-12T15:49:41;99222.22;;;14.75;28.58
18527;BME280;9393;42.158;24.748;2023-03-12T15:53:01;99219.00;;;14.88;28.67
18527;BME280;9393;42.158;24.748;2023-03-12T15:56:20;99225.53;;;14.69;28.75
18527;BME280;9393;42.158;24.748;2023-03-12T15:59:26;99228.88;;;14.86;29.04
18527;BME280;9393;42.158;24.748;2023-03-12T16:02:35;99245.00;;;14.21;28.69
18527;BME280;9393;42.158;24.748;2023-03-12T16:05:41;99252.38;;;14.17;29.73
18527;BME280;9393;42.158;24.748;2023-03-12T16:08:47;99260.53;;;14.31;29.37
18527;BME280;9393;42.158;24.748;2023-03-12T16:11:54;99271.63;;;14.10;29.32
18527;BME280;9393;42.158;24.748;2023-03-12T16:14:59;99276.59;;;14.36;29.73
18527;BME280;9393;42.158;24.748;2023-03-12T16:18:04;99287.44;;;14.25;30.42
18527;BME280;9393;42.158;24.748;2023-03-12T16:21:10;99289.78;;;14.11;31.32
18527;BME280;9393;42.158;24.748;2023-03-12T16:24:14;99295.00;;;13.73;32.24
18527;BME280;9393;42.158;24.748;2023-03-12T16:27:19;99307.09;;;13.82;32.47
18527;BME280;9393;42.158;24.748;2023-03-12T16:30:35;99310.38;;;13.84;32.65
18527;BME280;9393;42.158;24.748;2023-03-12T16:33:39;99316.44;;;13.76;32.93
18527;BME280;9393;42.158;24.748;2023-03-12T16:36:46;99322.22;;;13.47;33.60
18527;BME280;9393;42.158;24.748;2023-03-12T16:39:50;99331.88;;;13.63;33.64
18527;BME280;9393;42.158;24.748;2023-03-12T16:42:55;99335.63;;;13.60;34.13
18527;BME280;9393;42.158;24.748;2023-03-12T16:46:07;99344.97;;;13.39;34.66
18527;BME280;9393;42.158;24.748;2023-03-12T16:49:13;99355.13;;;13.50;34.87
18527;BME280;9393;42.158;24.748;2023-03-12T16:52:21;99374.13;;;13.44;35.20